createdAt,value
2023-01-26T00:02:09.476Z,33.90
2023-01-26T00:04:37.137Z,25.77
2023-01-26T00:07:05.170Z,27.88
2023-01-26T00:09:32.819Z,22.80
2023-01-26T00:12:00.363Z,24.88
2023-01-26T00:14:28.027Z,27.27
2023-01-26T00:16:55.682Z,28.42
2023-01-26T00:19:23.474Z,31.52
2023-01-26T00:21:51.111Z,39.85
2023-01-26T00:24:19.004Z,17.30
2023-01-26T00:26:46.643Z,39.80
2023-01-26T00:29:14.945Z,28.15
2023-01-26T00:31:42.687Z,31.40
2023-01-26T00:34:13.015Z,37.03
2023-01-26T00:36:42.931Z,31.52
2023-01-26T00:39:10.951Z,31.23
2023-01-26T00:41:57.064Z,36.25
2023-01-26T00:44:30.682Z,37.78
2023-01-26T00:47:01.507Z,29.17
2023-01-26T00:49:29.167Z,30.13
2023-01-26T00:51:56.989Z,24.35
2023-01-26T00:54:26.411Z,25.48
2023-01-26T00:56:54.296Z,25.77
2023-01-26T00:59:22.304Z,32.13
2023-01-26T01:01:53.701Z,32.90
2023-01-26T01:04:21.973Z,35.88
2023-01-26T01:06:53.392Z,19.95
2023-01-26T01:09:21.553Z,27.05
2023-01-26T01:11:51.949Z,38.78
2023-01-26T01:14:19.820Z,38.58
2023-01-26T01:16:48.163Z,33.33
2023-01-26T01:19:17.833Z,35.20
2023-01-26T01:21:48.701Z,31.42
2023-01-26T01:24:16.460Z,43.33
2023-01-26T01:26:44.015Z,33.33
2023-01-26T01:29:15.321Z,39.05
2023-01-26T01:31:46.112Z,63.05
2023-01-26T01:34:13.691Z,37.15
2023-01-26T01:36:41.551Z,48.05
2023-01-26T01:39:09.253Z,39.20
2023-01-26T01:41:36.889Z,49.90
2023-01-26T01:44:25.272Z,43.33
2023-01-26T01:47:06.589Z,48.92
2023-01-26T01:49:42.642Z,40.78
2023-01-26T01:52:18.170Z,33.65
2023-01-26T01:54:54.266Z,28.25
2023-01-26T01:57:31.387Z,33.20
2023-01-26T02:00:10.574Z,30.60
2023-01-26T02:02:44.278Z,29.83
2023-01-26T02:05:32.915Z,48.50
2023-01-26T02:08:01.646Z,26.33
2023-01-26T02:10:30.221Z,31.95
2023-01-26T02:13:01.749Z,30.47
2023-01-26T02:15:30.756Z,37.08
2023-01-26T02:18:03.639Z,32.42
2023-01-26T02:21:01.699Z,45.33
2023-01-26T02:23:35.451Z,37.38
2023-01-26T02:26:18.620Z,25.65
2023-01-26T02:28:47.303Z,25.50
2023-01-26T02:31:15.600Z,39.17
2023-01-26T02:33:46.567Z,24.15
2023-01-26T02:36:20.636Z,29.48
2023-01-26T02:39:12.965Z,36.83
2023-01-26T02:41:59.629Z,31.92
2023-01-26T02:44:29.221Z,33.45
2023-01-26T02:46:56.838Z,35.17
2023-01-26T02:49:43.059Z,40.35
2023-01-26T02:52:11.734Z,27.30
2023-01-26T02:54:57.848Z,35.63
2023-01-26T02:57:26.474Z,45.65
2023-01-26T02:59:53.998Z,64.97
2023-01-26T03:02:22.639Z,59.33
2023-01-26T03:04:50.282Z,57.17
2023-01-26T03:07:18.182Z,66.05
2023-01-26T03:09:45.732Z,45.20
2023-01-26T03:12:13.370Z,30.33
2023-01-26T03:14:41.777Z,38.55
2023-01-26T03:17:09.508Z,34.65
2023-01-26T03:19:56.422Z,47.88
2023-01-26T03:22:42.552Z,53.92
2023-01-26T03:25:28.645Z,66.70
2023-01-26T03:27:59.356Z,41.05
2023-01-26T03:30:26.956Z,107.78
2023-01-26T03:32:54.572Z,57.55
2023-01-26T03:35:22.678Z,50.80
2023-01-26T03:37:54.774Z,46.10
2023-01-26T03:41:03.048Z,39.72
2023-01-26T03:43:49.290Z,39.80
2023-01-26T03:46:35.977Z,32.30
2023-01-26T03:49:23.868Z,51.88
2023-01-26T03:52:13.413Z,57.38
2023-01-26T03:54:59.353Z,56.40
2023-01-26T03:57:29.538Z,56.95
2023-01-26T03:59:57.205Z,48.22
2023-01-26T04:02:49.351Z,52.25
2023-01-26T04:08:23.914Z,53.80
2023-01-26T04:10:57.854Z,72.55
2023-01-26T04:13:44.844Z,63.10
2023-01-26T04:16:39.886Z,80.45
2023-01-26T04:19:26.108Z,63.67
2023-01-26T04:21:53.911Z,96.53
2023-01-26T04:24:27.824Z,88.20
2023-01-26T04:26:57.616Z,103.00
2023-01-26T04:29:34.480Z,87.88
2023-01-26T04:32:02.429Z,60.13
2023-01-26T04:34:30.068Z,52.63
2023-01-26T04:36:58.964Z,101.53
2023-01-26T04:39:34.274Z,112.38
2023-01-26T04:42:01.981Z,105.03
2023-01-26T04:44:35.134Z,131.35
2023-01-26T04:47:03.437Z,130.05
2023-01-26T04:49:31.076Z,94.30
2023-01-26T04:51:58.856Z,91.22
2023-01-26T04:54:27.426Z,74.55
2023-01-26T04:56:55.080Z,37.17
2023-01-26T04:59:25.820Z,44.47
2023-01-26T05:01:57.961Z,29.50
2023-01-26T05:04:25.615Z,26.67
2023-01-26T05:06:54.412Z,26.58
2023-01-26T05:09:25.227Z,40.38
2023-01-26T05:12:28.406Z,40.83
2023-01-26T05:15:14.475Z,36.08
2023-01-26T05:17:59.944Z,30.08
2023-01-26T05:20:45.841Z,39.55
2023-01-26T05:23:18.726Z,35.75
2023-01-26T05:26:05.256Z,28.52
2023-01-26T05:28:43.160Z,32.83
2023-01-26T05:31:10.792Z,30.50
2023-01-26T05:33:38.582Z,22.10
2023-01-26T05:36:08.224Z,32.47
2023-01-26T05:38:36.349Z,33.38
2023-01-26T05:41:06.341Z,33.55
2023-01-26T05:43:43.396Z,30.42
2023-01-26T05:46:20.238Z,36.83
2023-01-26T05:48:47.931Z,27.73
2023-01-26T05:51:15.587Z,34.95
2023-01-26T05:53:43.363Z,29.10
2023-01-26T05:56:11.159Z,46.35
2023-01-26T05:58:44.050Z,31.17
2023-01-26T06:01:11.722Z,33.60
2023-01-26T06:03:48.213Z,33.65
2023-01-26T06:06:16.121Z,28.65
2023-01-26T06:08:53.851Z,35.63
2023-01-26T06:11:34.135Z,35.17
2023-01-26T06:14:31.082Z,38.53
2023-01-26T06:16:59.352Z,32.72
2023-01-26T06:19:27.523Z,30.30
2023-01-26T06:22:02.504Z,25.98
2023-01-26T06:24:31.163Z,23.58
2023-01-26T06:26:59.395Z,29.25
2023-01-26T06:29:27.488Z,25.98
2023-01-26T06:31:55.833Z,29.85
2023-01-26T06:34:23.603Z,28.42
2023-01-26T06:36:51.380Z,25.27
2023-01-26T06:39:26.368Z,37.35
2023-01-26T06:41:54.493Z,30.23
2023-01-26T06:44:25.127Z,29.85
2023-01-26T06:46:53.305Z,27.60
2023-01-26T06:49:21.392Z,30.95
2023-01-26T06:52:05.224Z,34.83
2023-01-26T06:54:45.331Z,26.60
2023-01-26T06:57:28.105Z,30.02
2023-01-26T07:00:12.356Z,23.63
2023-01-26T07:02:53.507Z,27.25
2023-01-26T07:05:21.352Z,25.90
2023-01-26T07:07:49.207Z,35.30
2023-01-26T07:10:17.022Z,27.85
2023-01-26T07:12:46.371Z,24.38
2023-01-26T07:15:14.202Z,26.42
2023-01-26T07:17:42.078Z,36.03
2023-01-26T07:20:12.120Z,24.27
2023-01-26T07:22:40.028Z,24.08
2023-01-26T07:25:09.552Z,25.08
2023-01-26T07:27:37.488Z,28.85
2023-01-26T07:30:05.847Z,16.83
2023-01-26T07:32:33.695Z,21.63
2023-01-26T07:35:01.689Z,22.77
2023-01-26T07:37:30.427Z,22.02
2023-01-26T07:39:57.988Z,22.98
2023-01-26T07:42:25.655Z,20.65
2023-01-26T07:45:05.899Z,30.65
2023-01-26T07:47:33.584Z,25.15
2023-01-26T07:50:01.640Z,17.73
2023-01-26T07:52:29.405Z,22.02
2023-01-26T07:54:57.037Z,28.85
2023-01-26T07:57:24.720Z,20.92
2023-01-26T07:59:52.253Z,19.58
2023-01-26T08:02:23.461Z,25.48
2023-01-26T08:04:51.156Z,26.73
2023-01-26T08:07:18.793Z,23.42
2023-01-26T08:09:46.524Z,20.85
2023-01-26T08:12:14.387Z,23.80
2023-01-26T08:14:47.091Z,21.27
2023-01-26T08:17:17.556Z,23.00
2023-01-26T08:19:46.464Z,24.55
2023-01-26T08:22:14.300Z,28.48
2023-01-26T08:24:42.542Z,22.73
2023-01-26T08:27:10.181Z,18.33
2023-01-26T08:29:38.041Z,23.58
2023-01-26T08:32:14.776Z,18.58
2023-01-26T08:34:42.374Z,15.65
2023-01-26T08:37:12.643Z,18.88
2023-01-26T08:39:40.623Z,13.77
2023-01-26T08:42:08.210Z,18.63
2023-01-26T08:44:35.799Z,19.60
2023-01-26T08:47:03.412Z,28.30
2023-01-26T08:49:33.363Z,16.83
2023-01-26T08:52:01.125Z,20.77
2023-01-26T08:54:29.165Z,16.33
2023-01-26T08:56:57.644Z,18.83
2023-01-26T08:59:27.803Z,18.25
2023-01-26T09:01:55.959Z,10.93
2023-01-26T09:04:23.831Z,21.27
2023-01-26T09:06:51.742Z,14.77
2023-01-26T09:09:19.519Z,14.23
2023-01-26T09:11:54.148Z,22.50
2023-01-26T09:14:22.798Z,13.23
2023-01-26T09:16:50.504Z,14.20
2023-01-26T09:19:18.318Z,10.43
2023-01-26T09:21:46.182Z,11.82
2023-01-26T09:24:14.451Z,10.43
2023-01-26T09:26:45.331Z,17.65
2023-01-26T09:29:13.166Z,14.02
2023-01-26T09:31:41.086Z,14.43
2023-01-26T09:34:08.810Z,14.82
2023-01-26T09:36:36.435Z,14.82
2023-01-26T09:39:04.172Z,20.20
2023-01-26T09:41:56.028Z,17.35
2023-01-26T09:44:27.023Z,21.90
2023-01-26T09:47:07.002Z,6.20
2023-01-26T09:50:10.669Z,11.48
2023-01-26T09:52:51.134Z,14.43
2023-01-26T09:55:21.799Z,18.13
2023-01-26T09:58:07.937Z,13.20
2023-01-26T10:00:47.328Z,13.30
2023-01-26T10:03:40.260Z,8.75
2023-01-26T10:06:28.991Z,8.13
2023-01-26T10:09:27.927Z,8.45
2023-01-26T10:12:00.648Z,16.17
2023-01-26T10:14:40.872Z,7.70
2023-01-26T10:17:17.671Z,9.52
2023-01-26T10:19:52.953Z,12.13
2023-01-26T10:22:23.230Z,19.00
2023-01-26T10:24:53.129Z,4.57
2023-01-26T10:27:20.756Z,8.77
2023-01-26T10:29:48.278Z,10.10
2023-01-26T10:32:18.445Z,9.60
2023-01-26T10:34:49.133Z,12.07
2023-01-26T10:37:26.447Z,8.75
2023-01-26T10:40:07.574Z,9.05
2023-01-26T10:42:36.826Z,10.77
2023-01-26T10:45:25.914Z,10.05
2023-01-26T10:48:18.967Z,9.70
2023-01-26T10:50:50.252Z,20.48
2023-01-26T10:53:24.686Z,11.80
2023-01-26T10:56:04.274Z,10.05
2023-01-26T10:58:50.460Z,9.30
2023-01-26T11:01:23.260Z,9.40
2023-01-26T11:04:17.274Z,11.10
2023-01-26T11:06:45.084Z,8.55
2023-01-26T11:09:20.392Z,11.57
2023-01-26T11:12:00.742Z,7.35
2023-01-26T11:14:32.139Z,11.57
2023-01-26T11:17:22.743Z,11.50
2023-01-26T11:19:55.717Z,9.07
2023-01-26T11:22:33.936Z,14.80
2023-01-26T11:25:20.430Z,14.68
2023-01-26T11:28:13.478Z,15.90
2023-01-26T11:31:10.439Z,9.40
2023-01-26T11:34:22.390Z,9.80
2023-01-26T11:37:53.838Z,7.53
2023-01-26T11:40:44.277Z,11.10
2023-01-26T11:43:49.885Z,15.35
2023-01-26T11:46:26.927Z,13.52
2023-01-26T11:49:17.490Z,10.93
2023-01-26T11:52:02.928Z,15.57
2023-01-26T11:54:36.274Z,7.25
2023-01-26T11:57:12.821Z,12.02
2023-01-26T11:59:49.478Z,7.68
2023-01-26T12:02:37.791Z,10.25
2023-01-26T12:05:28.931Z,8.10
2023-01-26T12:08:11.992Z,7.78
2023-01-26T12:10:41.882Z,5.35
2023-01-26T12:15:50.784Z,6.00
2023-01-26T12:18:32.282Z,9.20
2023-01-26T12:21:11.612Z,9.57
2023-01-26T12:23:44.874Z,3.80
2023-01-26T12:26:16.863Z,9.43
2023-01-26T12:29:09.744Z,6.85
2023-01-26T12:31:53.250Z,7.60
2023-01-26T12:34:29.443Z,7.40
2023-01-26T12:37:02.533Z,8.30
2023-01-26T12:39:39.619Z,6.20
2023-01-26T12:42:31.163Z,6.63
2023-01-26T12:45:02.226Z,8.38
2023-01-26T12:47:44.694Z,5.07
2023-01-26T12:50:40.211Z,4.82
2023-01-26T12:53:32.479Z,5.68
2023-01-26T12:56:10.655Z,7.55
2023-01-26T12:58:43.080Z,7.50
2023-01-26T13:01:13.992Z,4.78
2023-01-26T13:03:45.672Z,3.38
2023-01-26T13:06:13.231Z,6.38
2023-01-26T13:08:57.238Z,11.23
2023-01-26T13:11:52.164Z,5.97
2023-01-26T13:14:43.961Z,5.30
2023-01-26T13:17:17.625Z,8.52
2023-01-26T13:19:45.339Z,8.38
2023-01-26T13:22:19.230Z,8.82
2023-01-26T13:24:58.205Z,7.40
2023-01-26T13:27:39.282Z,6.53
2023-01-26T13:30:43.439Z,9.20
2023-01-26T13:33:19.146Z,4.13
2023-01-26T13:35:48.233Z,8.02
2023-01-26T13:38:39.063Z,8.05
2023-01-26T13:41:10.304Z,7.88
2023-01-26T13:43:44.381Z,15.20
2023-01-26T13:46:17.893Z,3.40
2023-01-26T13:48:47.121Z,8.77
2023-01-26T13:51:35.863Z,12.10
2023-01-26T13:54:13.045Z,6.10
2023-01-26T13:57:00.780Z,16.65
2023-01-26T13:59:28.440Z,5.07
2023-01-26T14:01:57.378Z,6.80
2023-01-26T14:04:27.933Z,9.85
2023-01-26T14:06:59.020Z,6.30
2023-01-26T14:09:30.149Z,10.93
2023-01-26T14:12:02.342Z,6.65
2023-01-26T14:14:33.263Z,10.15
2023-01-26T14:17:07.998Z,5.43
2023-01-26T14:19:41.891Z,8.70
2023-01-26T14:22:18.404Z,7.30
2023-01-26T14:24:54.046Z,7.03
2023-01-26T14:27:42.136Z,9.93
2023-01-26T14:30:27.553Z,4.22
2023-01-26T14:33:16.468Z,14.45
2023-01-26T14:36:04.787Z,8.55
2023-01-26T14:38:44.165Z,6.47
2023-01-26T14:41:28.661Z,9.45
2023-01-26T14:44:00.205Z,7.63
2023-01-26T14:46:32.735Z,9.63
2023-01-26T14:49:14.712Z,7.60
2023-01-26T14:51:45.625Z,9.55
2023-01-26T14:54:21.678Z,7.20
2023-01-26T14:56:49.416Z,10.75
2023-01-26T14:59:22.526Z,11.73
2023-01-26T15:01:50.442Z,7.93
2023-01-26T15:04:35.444Z,8.65
2023-01-26T15:07:41.756Z,7.15
2023-01-26T15:10:26.911Z,5.55
2023-01-26T15:13:08.262Z,4.65
2023-01-26T15:15:39.199Z,5.47
2023-01-26T15:18:20.378Z,9.23
2023-01-26T15:21:01.983Z,9.88
2023-01-26T15:23:42.867Z,8.38
2023-01-26T15:26:26.900Z,5.22
2023-01-26T15:28:56.721Z,11.10
2023-01-26T15:34:03.813Z,6.07
2023-01-26T15:36:41.792Z,7.80
2023-01-26T15:39:15.150Z,5.43
2023-01-26T15:41:45.083Z,10.18
2023-01-26T15:44:20.323Z,4.07
2023-01-26T15:46:47.943Z,7.25
2023-01-26T15:49:18.369Z,8.70
2023-01-26T15:51:46.162Z,3.90
2023-01-26T15:54:13.704Z,7.90
2023-01-26T15:56:41.283Z,8.27
2023-01-26T15:59:08.845Z,7.15
2023-01-26T16:01:36.447Z,5.57
2023-01-26T16:04:04.376Z,8.25
2023-01-26T16:06:33.428Z,5.47
2023-01-26T16:09:00.926Z,10.27
2023-01-26T16:11:33.584Z,5.93
2023-01-26T16:14:04.317Z,5.32
2023-01-26T16:16:32.999Z,4.63
2023-01-26T16:19:00.797Z,5.10
2023-01-26T16:21:31.642Z,4.05
2023-01-26T16:24:00.301Z,4.55
2023-01-26T16:26:28.714Z,12.82
2023-01-26T16:28:56.711Z,7.47
2023-01-26T16:31:29.553Z,3.50
2023-01-26T16:33:58.257Z,2.95
2023-01-26T16:36:25.928Z,4.45
2023-01-26T16:38:53.671Z,4.50
2023-01-26T16:41:31.728Z,4.63
2023-01-26T16:44:01.173Z,8.20
2023-01-26T16:46:30.303Z,8.73
2023-01-26T16:48:57.952Z,6.95
2023-01-26T16:51:26.876Z,7.22
2023-01-26T16:53:55.517Z,6.70
2023-01-26T16:56:24.460Z,10.35
2023-01-26T16:58:52.081Z,6.93
2023-01-26T17:01:28.383Z,6.53
2023-01-26T17:03:56.621Z,5.82
2023-01-26T17:06:24.698Z,5.72
2023-01-26T17:08:52.839Z,2.83
2023-01-26T17:11:27.788Z,6.35
2023-01-26T17:13:56.938Z,8.43
2023-01-26T17:16:29.460Z,3.92
2023-01-26T17:18:57.514Z,10.02
2023-01-26T17:21:26.733Z,7.40
2023-01-26T17:23:56.981Z,8.02
2023-01-26T17:26:24.933Z,9.90
2023-01-26T17:28:56.173Z,10.35
2023-01-26T17:31:24.817Z,8.63
2023-01-26T17:33:54.561Z,8.73
2023-01-26T17:36:22.251Z,8.10
2023-01-26T17:38:49.904Z,8.73
2023-01-26T17:41:17.669Z,7.03
2023-01-26T17:43:45.640Z,7.18
2023-01-26T17:46:21.263Z,4.97
2023-01-26T17:48:49.695Z,7.80
2023-01-26T17:51:20.099Z,12.45
2023-01-26T17:53:49.831Z,8.65
2023-01-26T17:56:20.331Z,6.10
2023-01-26T17:58:53.985Z,9.98
2023-01-26T18:01:24.358Z,6.05
2023-01-26T18:03:53.705Z,5.38
2023-01-26T18:06:21.595Z,5.60
2023-01-26T18:08:49.441Z,7.03
2023-01-26T18:11:17.715Z,5.72
2023-01-26T18:13:45.400Z,5.65
2023-01-26T18:16:17.291Z,10.05
2023-01-26T18:18:45.707Z,5.57
2023-01-26T18:21:18.954Z,5.15
2023-01-26T18:23:54.414Z,7.95
2023-01-26T18:26:24.858Z,6.47
2023-01-26T18:28:52.556Z,11.07
2023-01-26T18:31:23.489Z,6.95
2023-01-26T18:33:51.823Z,8.50
2023-01-26T18:36:20.667Z,7.20
2023-01-26T18:38:51.488Z,4.70
2023-01-26T18:41:21.330Z,10.13
2023-01-26T18:43:53.875Z,11.55
2023-01-26T18:46:22.423Z,2.83
2023-01-26T18:48:53.212Z,4.75
2023-01-26T18:51:22.676Z,7.10
2023-01-26T18:53:50.268Z,5.18
2023-01-26T18:56:18.335Z,2.95
2023-01-26T18:58:45.990Z,5.47
2023-01-26T19:01:15.991Z,6.35
2023-01-26T19:03:54.211Z,7.07
2023-01-26T19:06:24.194Z,4.55
2023-01-26T19:09:01.399Z,6.18
2023-01-26T19:11:31.459Z,6.88
2023-01-26T19:16:27.799Z,9.10
2023-01-26T19:18:55.910Z,7.50
2023-01-26T19:21:25.633Z,5.20
2023-01-26T19:23:55.547Z,3.70
2023-01-26T19:28:54.319Z,5.65
2023-01-26T19:31:22.770Z,6.10
2023-01-26T19:34:04.637Z,2.83
2023-01-26T19:36:34.535Z,5.68
2023-01-26T19:39:03.363Z,4.53
2023-01-26T19:41:30.888Z,6.57
2023-01-26T19:43:58.506Z,3.83
2023-01-26T19:46:26.215Z,4.75
2023-01-26T19:48:53.895Z,7.65
2023-01-26T19:51:24.345Z,3.15
2023-01-26T19:53:55.261Z,5.43
2023-01-26T19:56:26.346Z,4.97
2023-01-26T19:58:56.576Z,5.28
2023-01-26T20:01:25.791Z,3.90
2023-01-26T20:03:57.251Z,5.45
2023-01-26T20:06:29.989Z,4.53
2023-01-26T20:08:58.599Z,7.47
2023-01-26T20:11:28.949Z,7.50
2023-01-26T20:13:58.399Z,10.43
2023-01-26T20:16:29.430Z,7.47
2023-01-26T20:18:59.213Z,9.05
2023-01-26T20:21:28.294Z,5.25
2023-01-26T20:23:56.441Z,10.17
2023-01-26T20:26:27.670Z,9.63
2023-01-26T20:28:58.130Z,9.40
2023-01-26T20:31:26.524Z,6.72
2023-01-26T20:33:54.586Z,8.40
2023-01-26T20:36:25.974Z,8.55
2023-01-26T20:38:53.952Z,8.07
2023-01-26T20:41:25.333Z,5.90
2023-01-26T20:44:00.811Z,7.60
2023-01-26T20:46:32.438Z,4.35
2023-01-26T20:49:01.106Z,7.55
2023-01-26T20:51:33.756Z,11.07
2023-01-26T20:54:04.174Z,12.40
2023-01-26T20:56:32.373Z,5.55
2023-01-26T20:59:00.003Z,6.15
2023-01-26T21:01:27.707Z,8.30
2023-01-26T21:03:55.379Z,6.13
2023-01-26T21:06:24.194Z,5.53
2023-01-26T21:08:57.268Z,5.40
2023-01-26T21:11:27.235Z,6.70
2023-01-26T21:16:23.482Z,5.70
2023-01-26T21:18:51.653Z,5.63
2023-01-26T21:21:19.657Z,8.68
2023-01-26T21:23:47.270Z,7.70
2023-01-26T21:26:22.182Z,8.48
2023-01-26T21:28:54.899Z,9.18
2023-01-26T21:31:25.198Z,5.20
2023-01-26T21:33:53.691Z,6.90
2023-01-26T21:36:26.459Z,7.88
2023-01-26T21:38:57.790Z,5.65
2023-01-26T21:41:47.049Z,6.15
2023-01-26T21:44:17.746Z,5.90
2023-01-26T21:46:46.835Z,7.00
2023-01-26T21:49:17.824Z,6.18
2023-01-26T21:52:03.901Z,9.18
2023-01-26T21:54:32.476Z,8.55
2023-01-26T21:57:01.593Z,5.78
2023-01-26T21:59:30.240Z,6.65
2023-01-26T22:01:58.680Z,3.35
2023-01-26T22:04:29.707Z,4.38
2023-01-26T22:06:57.813Z,5.57
2023-01-26T22:09:25.576Z,6.45
2023-01-26T22:11:53.206Z,6.53
2023-01-26T22:14:23.741Z,5.28
2023-01-26T22:16:51.601Z,6.95
2023-01-26T22:19:19.384Z,6.53
2023-01-26T22:21:48.166Z,7.70
2023-01-26T22:24:18.003Z,5.05
2023-01-26T22:26:45.809Z,8.00
2023-01-26T22:29:13.420Z,7.30
2023-01-26T22:31:41.881Z,6.70
2023-01-26T22:34:11.400Z,5.57
2023-01-26T22:36:41.033Z,7.45
2023-01-26T22:39:09.066Z,5.97
2023-01-26T22:41:37.773Z,10.30
2023-01-26T22:44:08.665Z,5.68
2023-01-26T22:46:36.952Z,9.80
2023-01-26T22:49:05.056Z,8.82
2023-01-26T22:51:37.007Z,8.85
2023-01-26T22:54:05.530Z,7.97
2023-01-26T22:56:33.571Z,8.02
2023-01-26T22:59:01.700Z,7.97
2023-01-26T23:01:31.295Z,9.57
2023-01-26T23:03:59.903Z,6.35
2023-01-26T23:06:28.089Z,7.45
2023-01-26T23:08:58.115Z,4.95
2023-01-26T23:11:28.539Z,5.57
2023-01-26T23:13:57.954Z,6.15
2023-01-26T23:16:26.152Z,4.55
2023-01-26T23:18:55.922Z,6.38
2023-01-26T23:21:24.774Z,9.13
2023-01-26T23:23:52.759Z,6.63
2023-01-26T23:26:20.890Z,8.95
2023-01-26T23:28:48.791Z,8.40
2023-01-26T23:31:17.855Z,8.48
2023-01-26T23:33:45.783Z,6.22
2023-01-26T23:36:14.915Z,8.20
2023-01-26T23:38:43.871Z,5.28
2023-01-26T23:41:12.353Z,9.13
2023-01-26T23:43:40.428Z,5.40
2023-01-26T23:46:09.259Z,3.83
2023-01-26T23:48:37.529Z,5.55
2023-01-26T23:51:08.939Z,4.63
2023-01-26T23:53:36.854Z,5.68
2023-01-26T23:56:07.650Z,9.13
2023-01-26T23:58:36.714Z,3.85
